Time;durP1;ratioP1;P1;durP2;ratioP2;P2;SDS_P1;SDS_P2;PMS_P1;PMS_P2;Temp;Humidity;BMP_temperature;BMP_pressure;BME280_temperature;BME280_humidity;BME280_pressure;Samples;Min_cycle;Max_cycle;Signal;HPM_P1;HPM_P2
2023/02/04 00:00:16;;;;;;;0.10;0.10;;;;;;;9.69;72.56;103416.97;5016110;28;20040;-86
2023/02/04 00:02:42;;;;;;;0.10;0.10;;;;;;;9.66;72.94;103412.50;5013365;28;20026;-86
2023/02/04 00:05:10;;;;;;;0.10;0.10;;;;;;;9.64;72.96;103408.91;4989895;28;20061;-87
2023/02/04 00:07:36;;;;;;;0.10;0.10;;;;;;;9.64;72.91;103400.97;4985935;28;20041;-86
2023/02/04 00:10:04;;;;;;;0.10;0.10;;;;;;;9.64;72.91;103395.66;4984756;28;20034;-87
2023/02/04 00:12:30;;;;;;;0.13;0.13;;;;;;;9.63;72.87;103403.56;4988349;28;20034;-87
2023/02/04 00:14:56;;;;;;;0.55;0.55;;;;;;;9.63;72.83;103399.19;4991409;28;20139;-87
2023/02/04 00:17:22;;;;;;;0.10;0.10;;;;;;;9.61;72.94;103398.25;5008873;28;20046;-86
2023/02/04 00:19:48;;;;;;;0.10;0.10;;;;;;;9.62;72.64;103394.75;4994665;28;20035;-87
2023/02/04 00:22:14;;;;;;;0.43;0.43;;;;;;;9.60;72.64;103393.81;4987175;28;20031;-86
2023/02/04 00:24:42;;;;;;;0.10;0.10;;;;;;;9.60;72.76;103399.09;4985114;28;20061;-86
2023/02/04 00:27:08;;;;;;;0.32;0.32;;;;;;;9.55;73.07;103400.75;4991188;28;20053;-87
2023/02/04 00:29:34;;;;;;;0.10;0.10;;;;;;;9.51;73.14;103404.19;4986707;28;20383;-87
2023/02/04 00:32:00;;;;;;;0.10;0.10;;;;;;;9.46;73.39;103405.78;4992186;28;20031;-87
2023/02/04 00:34:26;;;;;;;1.17;1.10;;;;;;;9.47;73.23;103402.28;4993337;28;20484;-87
2023/02/04 00:36:52;;;;;;;0.10;0.10;;;;;;;9.43;73.43;103405.72;4993170;28;20238;-87
2023/02/04 00:39:18;;;;;;;0.10;0.10;;;;;;;9.43;73.29;103411.88;4989689;28;20031;-85
2023/02/04 00:41:44;;;;;;;0.10;0.10;;;;;;;9.45;73.24;103410.19;4996046;28;20533;-87
2023/02/04 00:44:12;;;;;;;0.00;0.00;;;;;;;9.47;73.08;103412.88;4991670;28;20046;-87
2023/02/04 00:46:39;;;;;;;0.13;0.13;;;;;;;9.48;73.59;103417.31;4981779;28;20576;-87
2023/02/04 00:49:09;;;;;;;0.08;0.08;;;;;;;9.44;73.50;103418.09;4984545;28;20057;-87
2023/02/04 00:51:36;;;;;;;0.10;0.10;;;;;;;9.48;73.51;103414.66;5005253;28;20018;-87
2023/02/04 00:54:03;;;;;;;0.10;0.10;;;;;;;9.48;73.16;103417.31;5007044;28;20038;-87
2023/02/04 00:56:29;;;;;;;0.63;0.63;;;;;;;9.47;73.28;103418.16;5006386;28;20042;-86
2023/02/04 00:58:55;;;;;;;0.10;0.10;;;;;;;9.47;73.19;103415.50;4995002;28;20049;-86
2023/02/04 01:01:21;;;;;;;0.10;0.10;;;;;;;9.50;73.38;103420.91;4993378;28;20034;-86
2023/02/04 01:03:47;;;;;;;1.55;1.45;;;;;;;9.51;73.12;103420.06;4991203;28;20141;-84
2023/02/04 01:06:13;;;;;;;0.10;0.10;;;;;;;9.51;73.27;103418.28;4988564;28;20034;-86
2023/02/04 01:08:39;;;;;;;0.10;0.10;;;;;;;9.51;72.99;103422.69;4998480;28;20097;-85
2023/02/04 01:11:05;;;;;;;0.10;0.10;;;;;;;9.50;73.56;103424.44;4990671;28;20107;-85
2023/02/04 01:13:31;;;;;;;0.10;0.10;;;;;;;9.51;73.37;103425.34;4998725;28;20073;-86
2023/02/04 01:15:57;;;;;;;0.10;0.10;;;;;;;9.51;73.36;103425.34;4992477;28;20109;-86
2023/02/04 01:18:23;;;;;;;0.10;0.10;;;;;;;9.54;73.29;103430.69;4993811;28;20121;-86
2023/02/04 01:20:49;;;;;;;0.10;0.10;;;;;;;9.52;73.15;103433.31;4998646;28;20042;-86
2023/02/04 01:23:16;;;;;;;0.10;0.10;;;;;;;9.57;73.11;103435.19;4995034;28;20542;-86
2023/02/04 01:25:42;;;;;;;0.20;0.20;;;;;;;9.58;73.56;103443.16;4997547;28;20026;-86
2023/02/04 01:28:08;;;;;;;0.10;0.10;;;;;;;9.56;73.41;103434.28;4998542;28;20057;-85
2023/02/04 01:30:34;;;;;;;0.10;0.10;;;;;;;9.59;73.31;103439.66;4991857;28;20062;-85
2023/02/04 01:33:00;;;;;;;0.10;0.10;;;;;;;9.63;73.12;103441.53;4999346;28;20121;-85
2023/02/04 01:35:26;;;;;;;0.10;0.10;;;;;;;9.63;73.50;103448.56;5015220;28;20046;-86
2023/02/04 01:37:52;;;;;;;0.10;0.10;;;;;;;9.62;73.49;103454.72;5015192;28;20026;-86
2023/02/04 01:40:18;;;;;;;0.10;0.10;;;;;;;9.67;73.61;103463.66;5003622;28;20034;-85
2023/02/04 01:42:45;;;;;;;0.10;0.10;;;;;;;9.62;73.79;103452.97;4985100;28;20121;-85
2023/02/04 01:45:11;;;;;;;0.10;0.10;;;;;;;9.66;73.32;103468.09;4987035;28;20421;-85
2023/02/04 01:47:38;;;;;;;0.10;0.10;;;;;;;9.69;73.62;103465.53;4993944;28;20581;-85
2023/02/04 01:50:05;;;;;;;0.10;0.10;;;;;;;9.66;73.69;103468.09;4998754;28;20125;-86
2023/02/04 01:52:37;;;;;;;0.10;0.10;;;;;;;9.68;73.78;103469.03;4987216;28;20054;-85
2023/02/04 01:55:05;;;;;;;0.20;0.20;;;;;;;9.70;73.32;103463.75;4993241;28;20027;-85
2023/02/04 01:57:32;;;;;;;0.10;0.10;;;;;;;9.65;73.96;103461.00;4991029;28;20026;-85
2023/02/04 01:59:58;;;;;;;0.10;0.10;;;;;;;9.66;73.50;103464.56;4997318;28;20034;-85
2023/02/04 02:05:22;;;;;;;0.10;0.10;;;;;;;9.70;73.48;103474.34;5078886;27;20401;-85
2023/02/04 02:07:50;;;;;;;0.03;0.03;;;;;;;9.70;73.51;103480.53;5067707;28;20028;-84
2023/02/04 02:10:17;;;;;;;0.90;0.90;;;;;;;9.69;73.39;103485.78;5064824;28;20048;-85
2023/02/04 02:12:44;;;;;;;0.17;0.17;;;;;;;9.71;73.34;103486.75;5066628;28;20036;-86
2023/02/04 02:15:12;;;;;;;0.10;0.10;;;;;;;9.74;73.27;103485.94;5062536;28;20029;-86
2023/02/04 02:17:39;;;;;;;0.00;0.00;;;;;;;9.74;73.19;103488.56;5069502;28;20119;-87
2023/02/04 02:20:09;;;;;;;0.10;0.10;;;;;;;9.74;73.53;103491.22;5069738;28;20028;-87
2023/02/04 02:22:59;;;;;;;0.10;0.10;;;;;;;9.75;73.51;103485.06;5070058;28;20055;-86
2023/02/04 02:25:28;;;;;;;0.10;0.10;;;;;;;9.76;73.52;103484.19;5063087;28;20447;-87
2023/02/04 02:27:56;;;;;;;0.10;0.10;;;;;;;9.79;73.33;103486.94;5066823;28;20086;-89
2023/02/04 02:30:22;;;;;;;0.20;0.20;;;;;;;9.80;73.28;103480.78;5066488;28;20159;-87
2023/02/04 02:32:50;;;;;;;0.20;0.20;;;;;;;9.79;73.28;103484.28;5066831;28;20036;-88
2023/02/04 02:35:17;;;;;;;0.10;0.10;;;;;;;9.75;73.41;103483.31;5067577;28;20028;-87
2023/02/04 02:37:43;;;;;;;0.10;0.10;;;;;;;9.73;73.53;103490.31;5066513;28;20024;-87
2023/02/04 02:40:10;;;;;;;0.10;0.10;;;;;;;9.74;73.42;103491.22;5085935;28;20021;-86
2023/02/04 02:42:37;;;;;;;0.10;0.10;;;;;;;9.73;73.16;103495.59;5091510;28;20029;-86
2023/02/04 02:45:10;;;;;;;0.10;0.10;;;;;;;9.76;73.06;103494.78;5074382;28;20041;-88
2023/02/04 02:47:39;;;;;;;0.10;0.10;;;;;;;9.76;73.12;103497.44;5064279;28;20395;-88
2023/02/04 02:50:09;;;;;;;0.10;0.10;;;;;;;9.76;73.28;103495.69;5063485;28;20064;-88
2023/02/04 02:52:35;;;;;;;0.10;0.10;;;;;;;9.77;73.21;103501.88;5057569;28;20024;-88
2023/02/04 02:55:01;;;;;;;0.40;0.40;;;;;;;9.75;73.25;103496.53;5066943;28;20490;-88
2023/02/04 02:57:27;;;;;;;0.10;0.10;;;;;;;9.77;73.47;103507.16;5064478;28;20041;-88
2023/02/04 02:59:53;;;;;;;0.10;0.10;;;;;;;9.79;73.13;103506.34;5061777;28;20040;-86
2023/02/04 03:02:22;;;;;;;0.10;0.10;;;;;;;9.82;73.13;103500.25;5064188;28;20555;-88
2023/02/04 03:04:55;;;;;;;0.10;0.10;;;;;;;9.83;73.12;103502.03;5060561;28;20547;-87
2023/02/04 03:07:22;;;;;;;0.10;0.10;;;;;;;9.84;73.38;103504.75;5066426;28;20028;-86
2023/02/04 03:09:50;;;;;;;0.10;0.10;;;;;;;9.84;73.30;103509.13;5058240;28;20047;-86
2023/02/04 03:12:16;;;;;;;0.10;0.10;;;;;;;9.81;72.95;103503.78;5058241;28;20033;-85
2023/02/04 03:14:42;;;;;;;0.10;0.10;;;;;;;9.78;73.10;103504.59;5049359;28;20022;-86
2023/02/04 03:17:09;;;;;;;0.10;0.10;;;;;;;9.75;73.05;103507.13;5044498;28;20384;-86
2023/02/04 03:19:36;;;;;;;0.10;0.10;;;;;;;9.74;73.01;103507.09;5061072;28;20209;-86
2023/02/04 03:22:04;;;;;;;0.10;0.10;;;;;;;9.71;72.97;103495.56;5070261;28;20040;-86
2023/02/04 03:24:31;;;;;;;0.10;0.10;;;;;;;9.74;73.03;103501.81;5062365;28;20037;-86
2023/02/04 03:26:57;;;;;;;0.20;0.20;;;;;;;9.71;73.40;103495.56;5051225;28;20485;-86
2023/02/04 03:29:23;;;;;;;0.10;0.10;;;;;;;9.71;73.11;103497.34;5047874;28;20032;-86
2023/02/04 03:31:49;;;;;;;0.10;0.10;;;;;;;9.67;73.16;103506.94;5046787;28;20033;-86
2023/02/04 03:34:16;;;;;;;0.10;0.10;;;;;;;9.65;73.27;103503.34;5047845;28;20025;-86
2023/02/04 03:36:42;;;;;;;0.20;0.20;;;;;;;9.67;73.27;103495.44;5050940;28;20086;-85
2023/02/04 03:39:08;;;;;;;0.10;0.10;;;;;;;9.66;73.11;103504.25;5051890;28;20153;-85
2023/02/04 03:41:34;;;;;;;0.20;0.20;;;;;;;9.64;73.46;103501.53;5051958;28;20037;-84
2023/02/04 03:44:00;;;;;;;0.10;0.10;;;;;;;9.64;73.35;103506.84;5053361;28;20037;-86
2023/02/04 03:46:27;;;;;;;0.10;0.10;;;;;;;9.66;73.26;103502.50;5052451;28;20453;-86
2023/02/04 03:48:53;;;;;;;0.10;0.10;;;;;;;9.64;73.45;103513.91;5053501;28;20032;-85
2023/02/04 03:51:19;;;;;;;4.65;0.63;;;;;;;9.64;73.14;103504.19;5055369;28;20398;-86
2023/02/04 03:53:45;;;;;;;0.10;0.10;;;;;;;9.61;72.88;103498.84;5053315;28;20482;-86
2023/02/04 03:56:11;;;;;;;0.10;0.10;;;;;;;9.60;73.42;103504.97;5053338;28;20028;-87
2023/02/04 03:58:37;;;;;;;0.10;0.10;;;;;;;9.57;73.10;103512.84;5062299;28;20029;-88
2023/02/04 04:01:04;;;;;;;0.10;0.10;;;;;;;9.55;73.29;103507.50;5077023;28;20032;-88
2023/02/04 04:03:30;;;;;;;0.10;0.10;;;;;;;9.52;73.06;103506.50;5066806;28;20049;-87
2023/02/04 04:05:56;;;;;;;0.57;0.57;;;;;;;9.50;73.12;103513.53;5052711;28;20032;-87
2023/02/04 04:08:22;;;;;;;0.20;0.20;;;;;;;9.50;73.29;103516.19;5059753;28;20060;-87
2023/02/04 04:10:48;;;;;;;0.17;0.17;;;;;;;9.50;73.06;103518.81;5058392;28;20036;-86
2023/02/04 04:13:14;;;;;;;0.10;0.10;;;;;;;9.52;73.19;103522.38;5049917;28;20029;-87
2023/02/04 04:15:40;;;;;;;0.43;0.43;;;;;;;9.54;73.27;103526.91;5046929;28;20037;-87
2023/02/04 04:18:06;;;;;;;0.20;0.20;;;;;;;9.55;73.42;103533.97;5050731;28;20108;-87
2023/02/04 04:20:32;;;;;;;0.10;0.10;;;;;;;9.59;73.12;103529.66;5051101;28;20115;-87
2023/02/04 04:22:58;;;;;;;0.68;0.68;;;;;;;9.60;73.32;103531.44;5058811;28;20096;-87
2023/02/04 04:25:25;;;;;;;0.10;0.10;;;;;;;9.62;73.43;103529.75;5049085;28;20032;-87
2023/02/04 04:27:51;;;;;;;0.10;0.10;;;;;;;9.63;73.33;103523.59;5050086;28;20032;-87
2023/02/04 04:30:17;;;;;;;0.10;0.10;;;;;;;9.67;73.52;103532.50;5051945;28;20028;-86
2023/02/04 04:32:43;;;;;;;0.17;0.17;;;;;;;9.68;73.59;103532.56;5056245;28;20033;-86
2023/02/04 04:35:09;;;;;;;1.45;1.45;;;;;;;9.71;73.57;103529.97;5054241;28;20490;-87
2023/02/04 04:37:35;;;;;;;0.10;0.10;;;;;;;9.75;73.46;103533.63;5054418;28;20142;-86
2023/02/04 04:40:02;;;;;;;0.10;0.10;;;;;;;9.78;73.41;103530.16;5049197;28;20032;-86
2023/02/04 04:42:28;;;;;;;0.10;0.10;;;;;;;9.79;73.46;103530.19;5063910;28;20510;-86
2023/02/04 04:44:54;;;;;;;0.10;0.10;;;;;;;9.80;73.40;103534.63;5070879;28;20076;-88
2023/02/04 04:47:20;;;;;;;0.10;0.10;;;;;;;9.82;73.53;103537.31;5066811;28;20041;-88
2023/02/04 04:49:46;;;;;;;0.10;0.10;;;;;;;9.83;73.10;103526.78;5059554;28;20037;-87
2023/02/04 04:52:12;;;;;;;0.85;0.85;;;;;;;9.84;73.37;103540.91;5052174;28;20053;-86
2023/02/04 04:54:38;;;;;;;0.10;0.10;;;;;;;9.86;73.42;103542.75;5050805;28;20049;-87
2023/02/04 04:57:04;;;;;;;0.10;0.10;;;;;;;9.90;73.30;103545.47;5042402;28;20033;-87
2023/02/04 04:59:30;;;;;;;0.10;0.10;;;;;;;9.90;73.08;103529.59;5042740;28;20036;-87
2023/02/04 05:01:56;;;;;;;0.17;0.17;;;;;;;9.90;73.25;103546.38;5044999;28;20543;-87
2023/02/04 05:04:22;;;;;;;0.10;0.10;;;;;;;9.92;72.85;103554.34;5040580;28;20393;-87
2023/02/04 05:06:48;;;;;;;0.20;0.20;;;;;;;9.87;73.05;103552.47;5040390;28;20071;-87
2023/02/04 05:09:16;;;;;;;0.10;0.10;;;;;;;9.88;73.07;103551.63;5041216;28;20407;-87
2023/02/04 05:11:42;;;;;;;0.10;0.10;;;;;;;9.86;72.61;103549.78;5038126;28;20033;-87
2023/02/04 05:14:08;;;;;;;0.10;0.10;;;;;;;9.88;72.94;103561.31;5042503;28;20025;-84
2023/02/04 05:16:34;;;;;;;0.10;0.10;;;;;;;9.91;73.05;103563.16;5052287;28;20028;-84
2023/02/04 05:19:00;;;;;;;0.17;0.17;;;;;;;9.92;73.13;103559.63;5052029;28;20036;-85
2023/02/04 05:21:26;;;;;;;0.10;0.10;;;;;;;9.93;73.10;103561.44;5049345;28;20061;-85
2023/02/04 05:23:52;;;;;;;0.20;0.20;;;;;;;9.95;72.81;103554.44;5056662;28;20041;-84
2023/02/04 05:26:18;;;;;;;0.10;0.10;;;;;;;9.97;72.98;103558.91;5046477;28;20029;-84
2023/02/04 05:28:44;;;;;;;0.10;0.10;;;;;;;9.96;73.08;103557.13;5049144;28;20044;-84
2023/02/04 05:31:10;;;;;;;0.10;0.10;;;;;;;9.97;72.98;103552.69;5044862;28;20036;-85
2023/02/04 05:33:36;;;;;;;0.10;0.10;;;;;;;9.98;73.17;103563.38;5056716;28;20033;-84
2023/02/04 05:36:02;;;;;;;0.20;0.20;;;;;;;9.98;72.85;103566.00;5051675;28;20032;-85
2023/02/04 05:38:28;;;;;;;0.10;0.10;;;;;;;10.00;73.14;103574.88;5050940;28;20124;-84
2023/02/04 05:40:55;;;;;;;0.00;0.00;;;;;;;10.00;72.96;103582.81;5050940;28;20530;-85
2023/02/04 05:43:21;;;;;;;0.10;0.10;;;;;;;9.98;72.77;103581.00;5051753;28;20048;-85
2023/02/04 05:45:47;;;;;;;0.22;0.22;;;;;;;9.97;72.62;103580.09;5046477;28;20029;-84
2023/02/04 05:48:13;;;;;;;0.10;0.10;;;;;;;9.97;72.87;103585.41;5047957;28;20040;-85
2023/02/04 05:50:39;;;;;;;0.10;0.10;;;;;;;9.96;72.75;103578.31;5045483;28;20048;-85
2023/02/04 05:53:05;;;;;;;0.10;0.10;;;;;;;9.98;72.88;103581.91;5047982;28;20033;-85
2023/02/04 05:55:31;;;;;;;0.20;0.20;;;;;;;9.97;72.64;103580.09;5054311;28;20037;-84
2023/02/04 05:57:57;;;;;;;0.20;0.20;;;;;;;9.97;72.94;103585.41;5056304;28;20437;-85
2023/02/04 06:00:23;;;;;;;0.10;0.10;;;;;;;9.97;72.95;103584.50;5061271;28;20041;-83
2023/02/04 06:02:49;;;;;;;0.20;0.20;;;;;;;9.96;72.77;103588.91;5066858;28;20025;-83
2023/02/04 06:05:17;;;;;;;0.10;0.10;;;;;;;9.97;72.74;103589.78;5072024;28;20037;-85
2023/02/04 06:07:43;;;;;;;0.10;0.10;;;;;;;9.97;72.74;103590.69;5055613;28;20033;-85
2023/02/04 06:10:10;;;;;;;0.13;0.13;;;;;;;9.97;72.76;103596.00;5048462;28;20068;-85
2023/02/04 06:12:36;;;;;;;0.13;0.13;;;;;;;9.97;72.85;103598.66;5049685;28;20040;-85
2023/02/04 06:15:02;;;;;;;0.10;0.10;;;;;;;9.97;72.71;103597.72;5046421;28;20037;-85
2023/02/04 06:17:28;;;;;;;0.30;0.20;;;;;;;9.96;72.79;103598.63;5065786;28;20052;-86
2023/02/04 06:19:54;;;;;;;0.10;0.10;;;;;;;9.95;72.87;103603.00;5065972;28;20041;-85
2023/02/04 06:22:23;;;;;;;0.10;0.10;;;;;;;9.92;72.62;103605.56;5044529;28;20100;-84
2023/02/04 06:24:49;;;;;;;0.10;0.10;;;;;;;9.93;72.72;103603.81;5050755;28;20029;-84
2023/02/04 06:27:22;;;;;;;0.10;0.10;;;;;;;9.91;72.84;103603.78;5051133;28;20037;-85
2023/02/04 06:29:49;;;;;;;0.10;0.10;;;;;;;9.91;73.04;103617.03;5047825;28;20039;-85
2023/02/04 06:32:16;;;;;;;0.20;0.20;;;;;;;9.88;73.06;103617.84;5049379;28;20029;-85
2023/02/04 06:34:42;;;;;;;0.30;0.30;;;;;;;9.90;73.14;103620.50;5050383;28;20115;-86
2023/02/04 06:37:08;;;;;;;0.20;0.20;;;;;;;9.89;72.96;103621.38;5046561;28;20064;-86
2023/02/04 06:39:34;;;;;;;0.10;0.10;;;;;;;9.91;73.13;103624.09;5062516;28;20043;-84
2023/02/04 06:42:00;;;;;;;0.77;0.73;;;;;;;9.91;72.85;103630.25;5066548;28;20043;-84
2023/02/04 06:44:26;;;;;;;0.10;0.10;;;;;;;9.91;72.71;103627.63;5062860;28;20034;-85
2023/02/04 06:46:52;;;;;;;0.20;0.20;;;;;;;9.93;72.90;103628.56;5059267;28;20017;-85
2023/02/04 06:49:18;;;;;;;0.10;0.10;;;;;;;9.92;73.00;103632.06;5061521;28;20130;-84
2023/02/04 06:51:44;;;;;;;0.10;0.10;;;;;;;9.93;72.95;103631.22;5051941;28;20025;-86
2023/02/04 06:54:10;;;;;;;0.15;0.15;;;;;;;9.95;72.84;103629.47;5057679;28;20040;-85
2023/02/04 06:56:39;;;;;;;0.10;0.10;;;;;;;9.98;72.89;103632.22;5061503;28;20035;-85
2023/02/04 06:59:05;;;;;;;0.13;0.13;;;;;;;9.98;73.15;103637.53;5058970;28;20048;-86
2023/02/04 07:01:31;;;;;;;0.10;0.10;;;;;;;10.00;72.92;103635.78;5064018;28;20078;-85
2023/02/04 07:03:58;;;;;;;0.20;0.20;;;;;;;10.02;72.82;103639.41;5063469;28;20108;-86
2023/02/04 07:06:24;;;;;;;0.10;0.10;;;;;;;10.01;72.70;103640.25;5061401;28;20028;-85
2023/02/04 07:08:50;;;;;;;0.10;0.10;;;;;;;10.02;72.94;103641.16;5057690;28;20075;-84
2023/02/04 07:11:16;;;;;;;0.10;0.10;;;;;;;10.02;72.86;103643.81;5056174;28;20071;-85
2023/02/04 07:13:42;;;;;;;0.10;0.10;;;;;;;10.03;72.85;103641.19;5057604;28;20017;-86
2023/02/04 07:16:08;;;;;;;0.10;0.10;;;;;;;10.02;72.88;103650.00;5057089;28;20110;-85
2023/02/04 07:18:34;;;;;;;0.10;0.10;;;;;;;10.01;72.81;103648.19;5055861;28;20664;-84
2023/02/04 07:21:00;;;;;;;0.30;0.30;;;;;;;10.03;72.86;103649.16;5061722;28;20089;-84
2023/02/04 07:23:27;;;;;;;0.00;0.00;;;;;;;10.04;73.04;103656.25;5064451;28;20033;-84
2023/02/04 07:25:56;;;;;;;0.10;0.10;;;;;;;10.08;72.70;103653.66;5076001;28;20101;-85
2023/02/04 07:28:25;;;;;;;0.10;0.10;;;;;;;10.06;72.90;103652.75;5075595;28;20033;-86
2023/02/04 07:30:51;;;;;;;0.10;0.10;;;;;;;10.06;73.00;103648.31;5053732;28;20025;-86
2023/02/04 07:33:17;;;;;;;0.10;0.10;;;;;;;10.04;73.03;103656.25;5051584;28;20116;-85
2023/02/04 07:35:43;;;;;;;0.93;0.88;;;;;;;10.04;72.82;103661.53;5056622;28;20049;-85
2023/02/04 07:38:09;;;;;;;0.10;0.10;;;;;;;10.03;72.90;103670.34;5049407;28;20040;-87
2023/02/04 07:40:35;;;;;;;0.13;0.13;;;;;;;10.07;72.81;103670.41;5052524;28;20384;-87
2023/02/04 07:43:02;;;;;;;0.10;0.10;;;;;;;10.07;72.77;103675.69;5050628;28;20025;-86
2023/02/04 07:45:33;;;;;;;0.00;0.00;;;;;;;10.11;72.91;103680.25;5053113;28;20426;-85
2023/02/04 07:48:00;;;;;;;0.20;0.20;;;;;;;10.13;72.78;103670.56;5050549;28;20030;-86
2023/02/04 07:50:26;;;;;;;0.10;0.10;;;;;;;10.16;72.89;103676.84;5049962;28;20087;-86
2023/02/04 07:52:52;;;;;;;0.10;0.10;;;;;;;10.20;72.88;103683.13;5055461;28;20108;-86
2023/02/04 07:55:18;;;;;;;0.10;0.10;;;;;;;10.24;72.80;103685.00;5058739;28;20030;-86
2023/02/04 07:57:44;;;;;;;0.10;0.10;;;;;;;10.27;72.90;103682.47;5053838;28;20053;-86
2023/02/04 08:00:13;;;;;;;0.10;0.10;;;;;;;10.31;72.92;103678.13;5060974;28;20049;-84
2023/02/04 08:02:40;;;;;;;0.20;0.20;;;;;;;10.34;72.82;103687.06;5059153;28;20407;-85
2023/02/04 08:05:07;;;;;;;0.10;0.10;;;;;;;10.36;72.75;103685.38;5062906;28;20096;-84
2023/02/04 08:07:33;;;;;;;0.10;0.10;;;;;;;10.38;72.79;103692.47;5059011;28;20025;-83
2023/02/04 08:09:59;;;;;;;0.10;0.10;;;;;;;10.39;72.82;103694.28;5048404;28;20033;-87
2023/02/04 08:12:25;;;;;;;0.10;0.10;;;;;;;10.42;72.81;103707.59;5055539;28;20076;-88
2023/02/04 08:14:52;;;;;;;0.10;0.10;;;;;;;10.46;72.85;103714.78;5053889;28;20025;-84
2023/02/04 08:17:18;;;;;;;0.10;0.10;;;;;;;10.48;72.86;103715.72;5054222;28;20041;-87
2023/02/04 08:19:47;;;;;;;0.10;0.10;;;;;;;10.52;72.75;103712.31;5060505;28;20032;-88
2023/02/04 08:22:13;;;;;;;0.20;0.20;;;;;;;10.55;72.75;103712.38;5057165;28;20052;-86
2023/02/04 08:24:39;;;;;;;0.10;0.10;;;;;;;10.60;72.84;103723.97;5050106;28;20049;-86
2023/02/04 08:27:05;;;;;;;0.10;0.10;;;;;;;10.62;72.66;103709.03;5062674;28;20033;-86
2023/02/04 08:29:32;;;;;;;0.15;0.15;;;;;;;10.66;72.62;103715.31;5061320;28;20060;-87
2023/02/04 08:31:58;;;;;;;0.20;0.20;;;;;;;10.70;72.66;103717.16;5048829;28;20025;-85
2023/02/04 08:34:24;;;;;;;0.10;0.10;;;;;;;10.74;72.95;103718.16;5053867;28;20021;-86
2023/02/04 08:36:50;;;;;;;0.10;0.10;;;;;;;10.79;72.58;103725.38;5068348;28;20045;-89
2023/02/04 08:39:16;;;;;;;0.10;0.10;;;;;;;10.82;72.70;103728.09;5067874;28;20028;-86
2023/02/04 08:41:42;;;;;;;0.10;0.10;;;;;;;10.86;72.60;103729.06;5063339;28;20029;-86
2023/02/04 08:44:08;;;;;;;0.10;0.10;;;;;;;10.89;72.71;103734.47;5057257;28;20045;-85
2023/02/04 08:46:34;;;;;;;0.10;0.10;;;;;;;10.92;72.64;103731.88;5058104;28;20026;-84
2023/02/04 08:49:00;;;;;;;0.10;0.10;;;;;;;10.97;72.24;103737.31;5072592;28;20040;-83
2023/02/04 08:51:26;;;;;;;0.10;0.10;;;;;;;11.02;72.67;103734.78;5061066;28;20045;-83
2023/02/04 08:53:52;;;;;;;0.10;0.10;;;;;;;11.05;72.59;103730.41;5042978;28;20164;-82
2023/02/04 08:56:19;;;;;;;0.30;0.30;;;;;;;11.09;72.09;103726.06;5045123;28;20060;-82
2023/02/04 08:58:46;;;;;;;0.10;0.10;;;;;;;11.09;72.16;103736.69;5041632;28;20017;-82
2023/02/04 09:01:13;;;;;;;0.10;0.10;;;;;;;11.11;72.17;103740.28;5048606;28;20044;-82
2023/02/04 09:03:42;;;;;;;0.10;0.10;;;;;;;11.15;72.38;103742.16;5036734;28;20112;-82
2023/02/04 09:06:08;;;;;;;0.10;0.10;;;;;;;11.18;72.27;103744.91;5041974;28;20031;-82
2023/02/04 09:08:35;;;;;;;0.47;0.47;;;;;;;11.20;71.95;103740.50;5040727;28;20033;-83
2023/02/04 09:11:01;;;;;;;0.10;0.10;;;;;;;11.21;71.87;103744.94;5044813;28;20031;-83
2023/02/04 09:13:27;;;;;;;0.10;0.10;;;;;;;11.24;71.77;103753.00;5050441;28;20112;-83
2023/02/04 09:15:53;;;;;;;0.10;0.10;;;;;;;11.25;71.17;103754.81;5046532;28;20030;-83
2023/02/04 09:18:21;;;;;;;0.50;0.50;;;;;;;11.26;71.11;103756.56;5045205;28;20483;-83
2023/02/04 09:20:48;;;;;;;0.40;0.40;;;;;;;11.28;71.70;103760.16;5054748;28;20024;-84
2023/02/04 09:23:15;;;;;;;0.20;0.20;;;;;;;11.28;71.71;103768.13;5054787;28;20028;-85
2023/02/04 09:25:44;;;;;;;0.10;0.10;;;;;;;11.30;71.62;103768.16;5055289;28;20059;-84
2023/02/04 09:28:11;;;;;;;0.13;0.13;;;;;;;11.33;71.42;103763.81;5069402;28;20044;-87
2023/02/04 09:30:39;;;;;;;0.10;0.10;;;;;;;11.36;71.79;103765.66;5069512;28;20043;-83
2023/02/04 09:33:06;;;;;;;0.17;0.17;;;;;;;11.39;71.50;103757.78;5069473;28;20086;-82
2023/02/04 09:35:32;;;;;;;0.10;0.10;;;;;;;11.45;71.95;103767.63;5068357;28;20033;-80
2023/02/04 09:37:58;;;;;;;0.10;0.10;;;;;;;11.49;71.39;103766.84;5067679;28;20104;-80
2023/02/04 09:40:27;;;;;;;0.20;0.20;;;;;;;11.56;72.23;103766.13;5068319;28;20043;-80
2023/02/04 09:42:54;;;;;;;0.20;0.20;;;;;;;11.61;71.22;103768.88;5068303;28;20029;-80
2023/02/04 09:45:24;;;;;;;0.10;0.10;;;;;;;11.67;70.99;103768.13;5067345;28;20029;-79
2023/02/04 09:47:51;;;;;;;0.10;0.10;;;;;;;11.74;71.76;103762.06;5067234;28;20021;-81
2023/02/04 09:50:20;;;;;;;0.10;0.10;;;;;;;11.78;71.18;103771.94;5065856;28;20039;-81
2023/02/04 09:52:48;;;;;;;0.17;0.17;;;;;;;11.82;71.62;103780.00;5060169;28;20110;-80
2023/02/04 09:55:17;;;;;;;0.10;0.10;;;;;;;11.84;71.39;103780.03;5059352;28;20315;-82
2023/02/04 09:57:44;;;;;;;0.10;0.10;;;;;;;11.87;71.34;103785.41;5061895;28;20028;-82
2023/02/04 10:00:17;;;;;;;0.10;0.10;;;;;;;11.92;71.24;103785.50;5052668;28;20044;-81
2023/02/04 10:02:43;;;;;;;0.10;0.10;;;;;;;11.94;71.62;103784.66;5054205;28;20061;-82
2023/02/04 10:05:16;;;;;;;0.20;0.20;;;;;;;11.95;71.49;103788.22;5067021;28;20033;-81
2023/02/04 10:07:42;;;;;;;;;;;;;;;12.05;70.74;103786.69;5065100;28;20043;-81
2023/02/04 10:10:17;;;;;;;0.57;0.57;;;;;;;12.02;70.71;103789.28;5072560;28;19920;-81
2023/02/04 10:12:46;;;;;;;0.98;0.95;;;;;;;12.01;70.11;103795.47;5071973;28;20097;-81
2023/02/04 10:15:18;;;;;;;0.10;0.10;;;;;;;12.07;69.81;103795.59;5055618;28;20042;-81
2023/02/04 10:17:45;;;;;;;0.43;0.43;;;;;;;12.16;70.96;103803.75;5057711;28;20052;-82
2023/02/04 10:20:14;;;;;;;0.10;0.10;;;;;;;12.21;70.33;103802.13;5061635;28;20043;-82
2023/02/04 10:22:40;;;;;;;0.10;0.10;;;;;;;12.22;70.52;103805.66;5056231;28;20018;-81
2023/02/04 10:25:13;;;;;;;0.20;0.20;;;;;;;12.24;69.63;103804.81;5050385;28;20043;-81
2023/02/04 10:27:57;;;;;;;0.10;0.10;;;;;;;12.28;69.42;103811.97;5044042;28;20029;-82
2023/02/04 10:30:37;;;;;;;0.10;0.10;;;;;;;12.25;69.65;103803.97;5046846;28;20357;-84
2023/02/04 10:33:24;;;;;;;0.10;0.10;;;;;;;12.29;69.70;103805.81;5063307;28;20276;-85
2023/02/04 10:35:54;;;;;;;0.10;0.10;;;;;;;12.23;69.56;103808.34;5060799;28;20025;-85
2023/02/04 10:38:20;;;;;;;0.10;0.10;;;;;;;12.23;70.05;103797.72;5063822;28;20104;-82
2023/02/04 10:40:47;;;;;;;0.10;0.10;;;;;;;12.19;68.92;103797.63;5064493;28;20060;-80
2023/02/04 10:43:21;;;;;;;0.20;0.20;;;;;;;12.19;69.79;103798.50;5063178;28;20029;-83
2023/02/04 10:45:57;;;;;;;0.10;0.10;;;;;;;12.22;69.55;103798.56;5060804;28;20039;-83
2023/02/04 10:48:24;;;;;;;0.10;0.10;;;;;;;12.19;69.45;103810.94;5058062;28;20034;-83
2023/02/04 10:50:50;;;;;;;0.10;0.10;;;;;;;12.19;69.53;103814.47;5065872;28;20025;-85
2023/02/04 10:56:22;;;;;;;0.20;0.20;;;;;;;12.27;68.58;103809.31;5059315;28;20036;-83
2023/02/04 10:58:49;;;;;;;0.10;0.10;;;;;;;12.24;68.59;103815.44;5061245;28;20129;-84
2023/02/04 11:01:16;;;;;;;0.10;0.10;;;;;;;12.24;67.90;103806.59;5058262;28;20033;-84
2023/02/04 11:03:43;;;;;;;0.73;0.73;;;;;;;12.23;67.37;103811.00;5064815;28;20130;-81
2023/02/04 11:06:16;;;;;;;0.20;0.20;;;;;;;12.29;68.56;103813.78;5065023;28;20583;-84
2023/02/04 11:08:42;;;;;;;0.47;0.47;;;;;;;12.27;67.07;103807.56;5065747;28;20090;-83
2023/02/04 11:11:15;;;;;;;0.30;0.30;;;;;;;12.32;66.30;103806.75;5063526;28;20040;-83
2023/02/04 11:19:00;;;;;;;2.08;0.60;;;;;;;12.30;69.49;103794.31;5109231;27;1194211;-83
2023/02/04 11:26:49;;;;;;;0.10;0.10;;;;;;;12.52;65.28;103801.81;5121770;27;1199663;-83
2023/02/04 11:32:03;;;;;;;0.10;0.10;;;;;;;12.58;65.34;103802.81;5125628;27;1272018;-83
2023/02/04 11:34:44;;;;;;;0.17;0.17;;;;;;;12.58;66.85;103804.59;5135751;28;20106;-83
2023/02/04 11:37:32;;;;;;;0.10;0.10;;;;;;;12.66;66.69;103795.00;5138357;27;20047;-83
2023/02/04 11:40:00;;;;;;;0.57;0.57;;;;;;;12.68;67.70;103795.03;5114811;28;20031;-82
2023/02/04 11:45:28;;;;;;;0.67;0.67;;;;;;;12.81;66.27;103801.47;5133037;27;1162270;-84
2023/02/04 11:48:02;;;;;;;0.10;0.10;;;;;;;12.82;65.64;103793.50;5142106;28;20019;-85
2023/02/04 11:50:32;;;;;;;0.10;0.10;;;;;;;12.81;64.12;103790.81;5125784;27;20027;-84